createdAt,value
2022-08-05T00:00:54.068Z,42.26
2022-08-05T00:03:20.531Z,42.64
2022-08-05T00:06:05.365Z,42.80
2022-08-05T00:08:36.290Z,43.39
2022-08-05T00:11:20.324Z,43.01
2022-08-05T00:13:53.001Z,42.91
2022-08-05T00:16:35.423Z,42.51
2022-08-05T00:19:03.917Z,43.03
2022-08-05T00:21:30.749Z,42.49
2022-08-05T00:24:10.088Z,42.79
2022-08-05T00:26:37.940Z,42.94
2022-08-05T00:29:04.383Z,42.66
2022-08-05T00:31:53.986Z,43.16
2022-08-05T00:34:56.409Z,43.18
2022-08-05T00:37:11.542Z,43.32
2022-08-05T00:39:57.530Z,43.37
2022-08-05T00:42:34.207Z,44.12
2022-08-05T00:45:01.426Z,44.47
2022-08-05T00:47:31.608Z,44.18
2022-08-05T00:50:14.849Z,44.67
2022-08-05T00:52:41.828Z,44.30
2022-08-05T00:55:12.250Z,43.43
2022-08-05T00:57:58.012Z,43.29
2022-08-05T01:00:26.052Z,43.56
2022-08-05T01:02:52.724Z,43.36
2022-08-05T01:05:19.503Z,43.13
2022-08-05T01:08:39.925Z,44.24
2022-08-05T01:10:51.526Z,44.61
2022-08-05T01:13:57.642Z,45.09
2022-08-05T01:16:29.351Z,45.79
2022-08-05T01:19:02.816Z,45.25
2022-08-05T01:21:41.115Z,45.07
2022-08-05T01:24:26.172Z,45.75
2022-08-05T01:26:56.621Z,46.50
2022-08-05T01:29:37.175Z,46.19
2022-08-05T01:32:12.300Z,45.08
2022-08-05T01:34:44.225Z,44.71
2022-08-05T01:37:24.418Z,44.25
2022-08-05T01:39:54.820Z,44.54
2022-08-05T01:42:27.939Z,44.58
2022-08-05T01:44:57.260Z,44.48
2022-08-05T01:47:38.724Z,44.77
2022-08-05T01:50:15.402Z,45.15
2022-08-05T01:52:44.170Z,45.47
2022-08-05T01:55:13.380Z,45.25
2022-08-05T01:58:10.553Z,45.13
2022-08-05T02:00:31.453Z,45.43
2022-08-05T02:03:03.583Z,45.57
2022-08-05T02:05:34.388Z,45.48
2022-08-05T02:08:03.866Z,45.89
2022-08-05T02:10:41.717Z,45.89
2022-08-05T02:13:16.391Z,46.22
2022-08-05T02:15:57.621Z,46.19
2022-08-05T02:18:34.865Z,46.17
2022-08-05T02:21:06.666Z,46.00
2022-08-05T02:23:44.227Z,46.01
2022-08-05T02:26:17.232Z,45.80
2022-08-05T02:28:46.332Z,46.23
2022-08-05T02:31:23.045Z,46.32
2022-08-05T02:33:57.352Z,47.37
2022-08-05T02:36:27.485Z,47.64
2022-08-05T02:38:57.526Z,47.12
2022-08-05T02:41:28.286Z,47.03
2022-08-05T02:44:11.306Z,47.79
2022-08-05T02:46:53.842Z,46.83
2022-08-05T02:49:35.783Z,46.87
2022-08-05T02:52:07.639Z,46.87
2022-08-05T02:54:37.022Z,46.81
2022-08-05T02:57:10.399Z,46.68
2022-08-05T02:59:54.420Z,46.70
2022-08-05T03:02:27.600Z,46.74
2022-08-05T03:04:57.301Z,47.06
2022-08-05T03:07:59.179Z,47.45
2022-08-05T03:10:15.680Z,46.92
2022-08-05T03:12:49.489Z,46.58
2022-08-05T03:15:18.513Z,46.49
2022-08-05T03:17:44.990Z,46.74
2022-08-05T03:20:11.827Z,46.80
2022-08-05T03:22:46.944Z,46.59
2022-08-05T03:25:32.612Z,47.97
2022-08-05T03:28:08.417Z,48.16
2022-08-05T03:30:36.743Z,48.99
2022-08-05T03:33:06.252Z,48.99
2022-08-05T03:35:40.746Z,49.87
2022-08-05T03:38:11.032Z,49.20
2022-08-05T03:40:45.310Z,49.13
2022-08-05T03:44:09.024Z,49.35
2022-08-05T03:46:03.306Z,49.45
2022-08-05T03:48:30.994Z,49.44
2022-08-05T03:52:37.864Z,50.09
2022-08-05T03:55:50.339Z,49.54
2022-08-05T03:56:55.258Z,48.90
2022-08-05T03:59:47.000Z,48.95
2022-08-05T04:02:38.784Z,49.68
2022-08-05T04:05:12.999Z,49.38
2022-08-05T04:07:57.585Z,48.36
2022-08-05T04:10:27.686Z,49.28
2022-08-05T04:12:58.939Z,49.43
2022-08-05T04:15:27.899Z,48.77
2022-08-05T04:18:07.198Z,48.52
2022-08-05T04:20:35.990Z,48.00
2022-08-05T04:23:02.439Z,48.40
2022-08-05T04:25:56.949Z,48.49
2022-08-05T04:28:17.230Z,48.18
2022-08-05T04:30:44.481Z,48.13
2022-08-05T04:33:12.334Z,47.79
2022-08-05T04:36:10.651Z,47.60
2022-08-05T04:38:39.151Z,47.14
2022-08-05T04:41:05.776Z,48.20
2022-08-05T04:43:34.201Z,49.32
2022-08-05T04:46:01.079Z,49.89
2022-08-05T04:48:28.359Z,49.71
2022-08-05T04:51:02.828Z,50.24
2022-08-05T04:53:33.413Z,50.54
2022-08-05T04:56:32.306Z,50.71
2022-08-05T04:58:48.135Z,50.54
2022-08-05T05:01:14.650Z,51.15
2022-08-05T05:04:00.338Z,50.68
2022-08-05T05:06:39.351Z,50.23
2022-08-05T05:09:17.216Z,49.97
2022-08-05T05:11:55.710Z,49.76
2022-08-05T05:14:27.744Z,48.91
2022-08-05T05:16:59.916Z,49.11
2022-08-05T05:19:36.575Z,49.16
2022-08-05T05:22:24.282Z,49.02
2022-08-05T05:24:58.888Z,49.07
2022-08-05T05:27:44.567Z,49.20
2022-08-05T05:30:28.847Z,49.64
2022-08-05T05:32:56.994Z,49.10
2022-08-05T05:35:27.841Z,49.47
2022-08-05T05:37:59.794Z,49.02
2022-08-05T05:40:29.425Z,48.80
2022-08-05T05:42:57.194Z,48.58
2022-08-05T05:45:24.544Z,48.27
2022-08-05T05:48:05.592Z,48.54
2022-08-05T05:50:44.147Z,47.74
2022-08-05T05:53:22.259Z,46.06
2022-08-05T05:55:51.813Z,45.98
2022-08-05T05:58:30.149Z,45.43
2022-08-05T06:01:02.556Z,45.41
2022-08-05T06:03:53.980Z,45.01
2022-08-05T06:06:27.918Z,45.50
2022-08-05T06:08:57.450Z,44.91
2022-08-05T06:11:24.167Z,44.83
2022-08-05T06:13:53.958Z,44.85
2022-08-05T06:16:28.358Z,44.42
2022-08-05T06:19:00.787Z,44.26
2022-08-05T06:21:35.693Z,44.73
2022-08-05T06:24:03.141Z,44.60
2022-08-05T06:26:31.840Z,44.38
2022-08-05T06:29:06.054Z,44.43
2022-08-05T06:31:46.797Z,44.12
2022-08-05T06:34:13.684Z,44.20
2022-08-05T06:36:57.039Z,44.44
2022-08-05T06:39:27.225Z,44.76
2022-08-05T06:41:59.000Z,44.65
2022-08-05T06:44:26.086Z,44.90
2022-08-05T06:46:52.656Z,44.61
2022-08-05T06:49:21.515Z,44.80
2022-08-05T06:52:07.765Z,45.22
2022-08-05T06:54:54.166Z,44.76
2022-08-05T06:58:03.281Z,42.87
2022-08-05T07:00:07.909Z,42.11
2022-08-05T07:02:47.009Z,40.39
2022-08-05T07:05:23.450Z,40.00
2022-08-05T07:08:04.380Z,39.31
2022-08-05T07:10:32.656Z,38.93
2022-08-05T07:13:56.950Z,38.08
2022-08-05T07:18:01.490Z,37.61
2022-08-05T07:19:09.924Z,38.03
2022-08-05T07:22:00.690Z,38.28
2022-08-05T07:24:23.228Z,37.35
2022-08-05T07:26:55.094Z,36.14
2022-08-05T07:29:25.355Z,35.49
2022-08-05T07:32:08.209Z,35.76
2022-08-05T07:34:35.785Z,35.89
2022-08-05T07:37:09.541Z,36.68
2022-08-05T07:40:25.836Z,36.38
2022-08-05T07:42:31.725Z,34.56
2022-08-05T07:45:00.614Z,33.78
2022-08-05T07:47:27.090Z,34.36
2022-08-05T07:50:07.393Z,33.40
2022-08-05T07:52:42.048Z,33.41
2022-08-05T07:55:44.586Z,33.79
2022-08-05T07:58:03.049Z,34.99
2022-08-05T08:00:30.652Z,33.95
2022-08-05T08:03:14.835Z,34.96
2022-08-05T08:05:49.376Z,35.48
2022-08-05T08:08:16.874Z,33.29
2022-08-05T08:10:49.015Z,32.29
2022-08-05T08:13:21.869Z,32.45
2022-08-05T08:16:50.232Z,33.58
2022-08-05T08:18:41.819Z,33.63
2022-08-05T08:21:17.704Z,33.27
2022-08-05T08:24:03.872Z,30.30
2022-08-05T08:26:30.783Z,27.10
2022-08-05T08:29:21.540Z,27.31
2022-08-05T08:31:45.466Z,27.41
2022-08-05T08:34:11.971Z,27.16
2022-08-05T08:36:50.192Z,25.89
2022-08-05T08:39:23.417Z,26.61
2022-08-05T08:42:00.009Z,26.36
2022-08-05T08:45:17.713Z,28.03
2022-08-05T08:48:06.028Z,28.33
2022-08-05T08:50:33.017Z,28.44
2022-08-05T08:53:12.011Z,27.66
2022-08-05T08:56:02.586Z,27.22
2022-08-05T08:58:43.548Z,24.87
2022-08-05T09:01:16.841Z,26.41
2022-08-05T09:03:48.342Z,28.32
2022-08-05T09:06:24.307Z,26.13
2022-08-05T09:08:55.425Z,26.04
2022-08-05T09:11:52.649Z,24.21
2022-08-05T09:14:54.696Z,22.23
2022-08-05T09:16:55.159Z,22.29
2022-08-05T09:19:28.046Z,20.01
2022-08-05T09:22:23.490Z,20.06
2022-08-05T09:25:13.889Z,20.25
2022-08-05T09:28:04.213Z,22.78
2022-08-05T09:30:34.759Z,21.06
2022-08-05T09:33:02.297Z,21.92
2022-08-05T09:35:29.462Z,21.01
2022-08-05T09:38:12.009Z,23.70
2022-08-05T09:40:51.783Z,25.84
2022-08-05T09:43:41.587Z,24.03
2022-08-05T09:46:27.994Z,22.88
2022-08-05T09:49:08.126Z,21.87
2022-08-05T09:51:43.464Z,19.55
2022-08-05T09:54:11.401Z,20.95
2022-08-05T09:56:38.918Z,19.78
2022-08-05T09:59:07.216Z,21.28
2022-08-05T10:01:36.854Z,21.81
2022-08-05T10:04:13.634Z,20.78
2022-08-05T10:06:58.846Z,21.50
2022-08-05T10:09:28.123Z,22.62
2022-08-05T10:12:30.466Z,21.84
2022-08-05T10:14:54.366Z,22.21
2022-08-05T10:17:37.239Z,22.85
2022-08-05T10:20:10.790Z,21.90
2022-08-05T10:22:48.659Z,23.82
2022-08-05T10:25:19.068Z,23.63
2022-08-05T10:28:13.339Z,24.01
2022-08-05T10:31:20.669Z,24.71
2022-08-05T10:33:25.624Z,22.86
2022-08-05T10:35:59.153Z,20.28
2022-08-05T10:38:28.692Z,18.48
2022-08-05T10:41:13.905Z,17.54
2022-08-05T10:44:04.794Z,18.14
2022-08-05T10:46:43.428Z,19.60
2022-08-05T10:49:16.574Z,18.51
2022-08-05T10:51:57.782Z,17.74
2022-08-05T10:54:56.168Z,17.07
2022-08-05T10:57:31.763Z,18.09
2022-08-05T11:00:18.702Z,19.03
2022-08-05T11:03:25.285Z,16.47
2022-08-05T11:06:15.931Z,18.28
2022-08-05T11:09:32.249Z,19.26
2022-08-05T11:12:26.595Z,20.32
2022-08-05T11:15:20.479Z,20.09
2022-08-05T11:18:07.685Z,18.43
2022-08-05T11:20:47.493Z,20.14
2022-08-05T11:23:33.289Z,21.77
2022-08-05T11:26:17.253Z,22.20
2022-08-05T11:29:06.775Z,22.19
2022-08-05T11:31:57.836Z,24.58
2022-08-05T11:34:51.951Z,27.77
2022-08-05T11:38:36.741Z,27.69
2022-08-05T11:41:03.456Z,24.91
2022-08-05T11:44:07.146Z,23.44
2022-08-05T11:47:10.330Z,22.41
2022-08-05T11:49:33.993Z,22.91
2022-08-05T11:52:01.258Z,21.95
2022-08-05T11:54:38.081Z,21.38
2022-08-05T11:57:08.447Z,20.24
2022-08-05T11:59:50.958Z,20.81
2022-08-05T12:02:29.947Z,19.16
2022-08-05T12:05:00.167Z,18.00
2022-08-05T12:08:03.732Z,18.07
2022-08-05T12:10:21.393Z,18.66
2022-08-05T12:12:59.397Z,17.95
2022-08-05T12:15:35.863Z,16.90
2022-08-05T12:18:10.675Z,16.33
2022-08-05T12:20:38.768Z,16.26
2022-08-05T12:23:11.985Z,15.97
2022-08-05T12:25:56.650Z,17.77
2022-08-05T12:28:37.800Z,18.40
2022-08-05T12:31:04.832Z,16.70
2022-08-05T12:33:36.527Z,17.01
2022-08-05T12:36:08.165Z,19.34
2022-08-05T12:38:38.091Z,17.39
2022-08-05T12:41:13.812Z,17.77
2022-08-05T12:43:57.465Z,19.19
2022-08-05T12:46:29.422Z,17.26
2022-08-05T12:49:19.028Z,18.49
2022-08-05T12:52:13.649Z,17.95
2022-08-05T12:54:39.896Z,18.01
2022-08-05T12:57:09.453Z,16.53
2022-08-05T13:01:57.318Z,15.26
2022-08-05T13:02:36.068Z,17.21
2022-08-05T13:05:06.370Z,16.94
2022-08-05T13:07:59.382Z,18.02
2022-08-05T13:10:19.710Z,17.16
2022-08-05T13:12:51.056Z,18.18
2022-08-05T13:15:42.220Z,17.33
2022-08-05T13:18:19.924Z,16.91
2022-08-05T13:20:47.376Z,15.26
2022-08-05T13:23:16.433Z,14.34
2022-08-05T13:25:52.572Z,15.94
2022-08-05T13:28:26.355Z,17.31
2022-08-05T13:30:53.398Z,16.16
2022-08-05T13:34:21.194Z,16.58
2022-08-05T13:36:07.144Z,16.34
2022-08-05T13:38:42.036Z,17.72
2022-08-05T13:41:09.415Z,16.47
2022-08-05T13:43:44.163Z,16.75
2022-08-05T13:46:43.652Z,17.15
2022-08-05T13:49:10.245Z,16.63
2022-08-05T13:51:41.550Z,16.44
2022-08-05T13:54:15.302Z,16.95
2022-08-05T13:56:45.128Z,16.78
2022-08-05T13:59:24.603Z,16.40
2022-08-05T14:01:56.481Z,18.10
2022-08-05T14:04:43.840Z,17.80
2022-08-05T14:07:56.885Z,16.70
2022-08-05T14:10:13.795Z,17.10
2022-08-05T14:12:48.905Z,16.85
2022-08-05T14:16:08.954Z,16.85
2022-08-05T14:18:03.881Z,16.64
2022-08-05T14:20:30.999Z,17.81
2022-08-05T14:22:58.974Z,16.89
2022-08-05T14:25:28.069Z,17.52
2022-08-05T14:27:54.796Z,17.22
2022-08-05T14:30:21.659Z,17.54
2022-08-05T14:32:48.848Z,17.47
2022-08-05T14:35:16.200Z,18.17
2022-08-05T14:37:51.015Z,19.53
2022-08-05T14:40:24.503Z,19.52
2022-08-05T14:42:51.433Z,20.02
2022-08-05T14:45:18.321Z,20.73
2022-08-05T14:48:04.033Z,20.43
2022-08-05T14:50:31.523Z,20.58
2022-08-05T14:52:59.581Z,20.20
2022-08-05T14:55:38.347Z,21.11
2022-08-05T14:58:10.966Z,20.02
2022-08-05T15:00:59.347Z,20.04
2022-08-05T15:03:33.718Z,19.95
2022-08-05T15:06:08.098Z,20.33
2022-08-05T15:08:59.082Z,20.24
2022-08-05T15:11:52.745Z,21.14
2022-08-05T15:14:33.445Z,21.09
2022-08-05T15:17:03.798Z,22.04
2022-08-05T15:19:30.850Z,22.29
2022-08-05T15:21:57.976Z,22.89
2022-08-05T15:24:27.447Z,23.76
2022-08-05T15:26:53.900Z,23.61
2022-08-05T15:29:22.835Z,24.63
2022-08-05T15:31:53.116Z,25.12
2022-08-05T15:34:33.074Z,26.00
2022-08-05T15:37:06.876Z,26.25
2022-08-05T15:41:01.187Z,25.93
2022-08-05T15:42:56.868Z,26.59
2022-08-05T15:45:14.803Z,26.33
2022-08-05T15:47:42.653Z,27.00
2022-08-05T15:50:15.178Z,26.61
2022-08-05T15:52:53.128Z,27.46
2022-08-05T15:55:24.879Z,26.98
2022-08-05T15:57:51.832Z,27.87
2022-08-05T16:00:26.057Z,27.26
2022-08-05T16:03:01.984Z,27.72
2022-08-05T16:05:28.686Z,28.47
2022-08-05T16:07:55.171Z,28.49
2022-08-05T16:10:25.595Z,28.56
2022-08-05T16:12:53.663Z,28.75
2022-08-05T16:15:23.009Z,29.72
2022-08-05T16:17:58.057Z,30.97
2022-08-05T16:20:25.544Z,32.02
2022-08-05T16:22:54.295Z,33.27
2022-08-05T16:25:20.736Z,33.45
2022-08-05T16:28:02.143Z,34.07
2022-08-05T16:30:32.301Z,34.40
2022-08-05T16:33:00.371Z,34.54
2022-08-05T16:35:33.686Z,35.05
2022-08-05T16:38:23.996Z,35.56
2022-08-05T16:40:59.703Z,36.13
2022-08-05T16:43:30.187Z,36.88
2022-08-05T16:46:07.313Z,36.37
2022-08-05T16:48:39.553Z,37.19
2022-08-05T16:51:09.853Z,37.41
2022-08-05T16:54:05.613Z,37.61
2022-08-05T16:56:26.509Z,38.65
2022-08-05T16:58:53.765Z,38.72
2022-08-05T17:01:20.390Z,39.05
2022-08-05T17:03:47.265Z,39.23
2022-08-05T17:06:16.352Z,39.76
2022-08-05T17:08:53.782Z,40.05
2022-08-05T17:11:23.482Z,39.88
2022-08-05T17:14:00.190Z,40.33
2022-08-05T17:16:36.712Z,41.11
2022-08-05T17:19:07.853Z,41.66
2022-08-05T17:21:37.504Z,41.71
2022-08-05T17:24:19.794Z,41.93
2022-08-05T17:26:53.493Z,41.28
2022-08-05T17:29:22.772Z,41.71
2022-08-05T17:31:59.459Z,42.40
2022-08-05T17:34:32.067Z,42.11
2022-08-05T17:36:59.786Z,42.29
2022-08-05T17:39:34.239Z,42.73
2022-08-05T17:42:17.633Z,42.39
2022-08-05T17:44:51.017Z,42.13
2022-08-05T17:47:22.495Z,42.67
2022-08-05T17:50:03.971Z,42.74
2022-08-05T17:52:32.326Z,42.77
2022-08-05T17:54:59.812Z,42.83
2022-08-05T17:57:27.683Z,42.72
2022-08-05T18:00:04.858Z,43.22
2022-08-05T18:02:34.370Z,43.41
2022-08-05T18:05:03.214Z,43.46
2022-08-05T18:07:41.229Z,43.69
2022-08-05T18:10:11.046Z,44.02
2022-08-05T18:12:38.280Z,44.37
2022-08-05T18:15:05.504Z,43.77
2022-08-05T18:18:00.202Z,44.37
2022-08-05T18:20:29.008Z,44.35
2022-08-05T18:22:58.518Z,44.18
2022-08-05T18:25:33.071Z,44.37
2022-08-05T18:27:59.707Z,45.05
2022-08-05T18:30:31.248Z,45.06
2022-08-05T18:33:00.424Z,44.71
2022-08-05T18:36:00.773Z,45.40
2022-08-05T18:38:16.534Z,45.84
2022-08-05T18:41:58.406Z,45.87
2022-08-05T18:43:37.901Z,45.49
2022-08-05T18:46:10.039Z,45.78
2022-08-05T18:48:41.695Z,45.19
2022-08-05T18:52:05.982Z,45.04
2022-08-05T18:54:14.008Z,45.61
2022-08-05T18:56:40.562Z,45.51
2022-08-05T18:59:43.212Z,45.38
2022-08-05T19:01:57.142Z,45.14
2022-08-05T19:04:25.227Z,45.36
2022-08-05T19:06:51.924Z,45.19
2022-08-05T19:09:20.580Z,45.16
2022-08-05T19:12:00.800Z,45.37
2022-08-05T19:14:53.418Z,45.30
2022-08-05T19:17:16.529Z,44.91
2022-08-05T19:19:46.862Z,44.80
2022-08-05T19:22:17.268Z,45.05
2022-08-05T19:25:00.243Z,45.48
2022-08-05T19:27:27.745Z,45.22
2022-08-05T19:29:56.453Z,43.85
2022-08-05T19:32:23.731Z,44.55
2022-08-05T19:34:55.275Z,43.83
2022-08-05T19:37:30.127Z,44.12
2022-08-05T19:40:11.252Z,44.66
2022-08-05T19:42:38.925Z,43.70
2022-08-05T19:45:07.083Z,43.30
2022-08-05T19:47:37.248Z,43.56
2022-08-05T19:50:04.886Z,43.55
2022-08-05T19:52:34.156Z,42.89
2022-08-05T19:55:07.169Z,43.11
2022-08-05T19:58:14.605Z,42.68
2022-08-05T20:00:35.701Z,42.00
2022-08-05T20:03:08.801Z,41.14
2022-08-05T20:05:43.093Z,41.48
2022-08-05T20:08:16.447Z,42.53
2022-08-05T20:10:43.282Z,42.72
2022-08-05T20:13:10.885Z,42.74
2022-08-05T20:15:51.704Z,42.32
2022-08-05T20:18:33.390Z,42.70
2022-08-05T20:21:04.525Z,43.26
2022-08-05T20:23:39.569Z,43.75
2022-08-05T20:26:24.784Z,44.66
2022-08-05T20:28:55.829Z,44.71
2022-08-05T20:31:36.773Z,44.56
2022-08-05T20:34:04.244Z,44.63
2022-08-05T20:36:30.792Z,44.86
2022-08-05T20:38:59.270Z,45.40
2022-08-05T20:41:43.971Z,45.90
2022-08-05T20:44:17.422Z,45.96
2022-08-05T20:46:46.338Z,45.78
2022-08-05T20:49:14.033Z,45.41
2022-08-05T20:51:40.519Z,45.35
2022-08-05T20:54:07.073Z,45.81
2022-08-05T20:56:42.472Z,45.71
2022-08-05T20:59:14.366Z,46.23
2022-08-05T21:01:46.250Z,47.04
2022-08-05T21:04:13.586Z,48.37
2022-08-05T21:06:45.625Z,49.76
2022-08-05T21:09:14.590Z,50.60
2022-08-05T21:12:10.491Z,51.77
2022-08-05T21:14:29.302Z,52.30
2022-08-05T21:17:01.489Z,54.21
2022-08-05T21:19:29.613Z,54.44
2022-08-05T21:22:14.219Z,54.80
2022-08-05T21:24:40.946Z,55.44
2022-08-05T21:27:09.187Z,55.23
2022-08-05T21:29:40.628Z,56.29
2022-08-05T21:32:07.681Z,55.31
2022-08-05T21:34:35.579Z,54.57
2022-08-05T21:37:02.330Z,54.82
2022-08-05T21:39:29.168Z,56.71
2022-08-05T21:42:01.878Z,59.17
2022-08-05T21:44:29.701Z,60.14
2022-08-05T21:46:58.068Z,61.49
2022-08-05T21:49:48.554Z,61.94
2022-08-05T21:52:21.530Z,64.39
2022-08-05T21:54:55.038Z,66.24
2022-08-05T21:57:31.624Z,67.23
2022-08-05T22:00:06.399Z,67.80
2022-08-05T22:02:37.421Z,67.73
2022-08-05T22:05:04.783Z,68.91
2022-08-05T22:07:40.052Z,68.66
2022-08-05T22:10:27.047Z,68.73
2022-08-05T22:12:59.225Z,69.42
2022-08-05T22:16:01.097Z,68.86
2022-08-05T22:18:24.851Z,69.06
2022-08-05T22:20:52.419Z,70.76
2022-08-05T22:24:02.979Z,71.72
2022-08-05T22:26:42.252Z,71.04
2022-08-05T22:29:17.416Z,71.03
2022-08-05T22:31:45.371Z,70.86
2022-08-05T22:34:12.928Z,70.39
2022-08-05T22:36:52.327Z,70.85
2022-08-05T22:39:21.588Z,70.97
2022-08-05T22:42:09.264Z,70.36
2022-08-05T22:44:34.855Z,71.50
2022-08-05T22:47:05.755Z,72.60
2022-08-05T22:50:20.747Z,73.18
2022-08-05T22:52:30.629Z,73.25
2022-08-05T22:55:00.768Z,72.92
2022-08-05T22:57:27.195Z,73.29
2022-08-05T23:00:03.758Z,73.04
2022-08-05T23:02:30.426Z,71.99
2022-08-05T23:05:02.012Z,70.67
2022-08-05T23:07:31.831Z,70.77
2022-08-05T23:10:02.054Z,71.21
2022-08-05T23:12:32.525Z,72.17
2022-08-05T23:15:09.143Z,73.10
2022-08-05T23:17:42.571Z,72.43
2022-08-05T23:20:23.585Z,72.37
2022-08-05T23:22:56.322Z,72.67
2022-08-05T23:25:52.618Z,73.27
2022-08-05T23:28:10.450Z,72.10
2022-08-05T23:30:39.678Z,71.97
2022-08-05T23:33:07.440Z,73.00
2022-08-05T23:35:48.807Z,73.10
2022-08-05T23:38:16.012Z,71.83
2022-08-05T23:40:50.235Z,72.36
2022-08-05T23:43:25.443Z,73.81
2022-08-05T23:46:05.266Z,73.11
2022-08-05T23:49:00.817Z,73.92
2022-08-05T23:51:52.597Z,74.76
2022-08-05T23:54:26.653Z,70.76
2022-08-05T23:57:03.890Z,71.05
